sensor_id;sensor_type;location;lat;lon;timestamp;temperature;humidity
31309;DHT22;17936;52.446;10.840;2023-07-13T00:01:19;17.60;99.90
31309;DHT22;17936;52.446;10.840;2023-07-13T00:03:45;17.50;99.90
31309;DHT22;17936;52.446;10.840;2023-07-13T00:06:10;17.40;99.90
31309;DHT22;17936;52.446;10.840;2023-07-13T00:08:36;17.30;99.90
31309;DHT22;17936;52.446;10.840;2023-07-13T00:11:02;17.10;99.90
31309;DHT22;17936;52.446;10.840;2023-07-13T00:13:29;17.20;99.90
31309;DHT22;17936;52.446;10.840;2023-07-13T00:15:57;17.30;99.90
31309;DHT22;17936;52.446;10.840;2023-07-13T00:18:23;17.20;99.90
31309;DHT22;17936;52.446;10.840;2023-07-13T00:20:48;17.10;99.90
31309;DHT22;17936;52.446;10.840;2023-07-13T00:23:14;17.00;99.90
31309;DHT22;17936;52.446;10.840;2023-07-13T00:25:40;16.90;99.90
31309;DHT22;17936;52.446;10.840;2023-07-13T00:28:06;16.70;99.90
31309;DHT22;17936;52.446;10.840;2023-07-13T00:30:31;16.80;99.90
31309;DHT22;17936;52.446;10.840;2023-07-13T00:32:57;16.80;99.90
31309;DHT22;17936;52.446;10.840;2023-07-13T00:35:22;16.90;99.90
31309;DHT22;17936;52.446;10.840;2023-07-13T00:37:48;16.90;99.90
31309;DHT22;17936;52.446;10.840;2023-07-13T00:40:15;16.90;99.90
31309;DHT22;17936;52.446;10.840;2023-07-13T00:42:41;17.00;99.90
31309;DHT22;17936;52.446;10.840;2023-07-13T00:47:52;16.90;99.90
31309;DHT22;17936;52.446;10.840;2023-07-13T00:50:19;16.80;99.90
31309;DHT22;17936;52.446;10.840;2023-07-13T00:52:49;17.00;99.90
31309;DHT22;17936;52.446;10.840;2023-07-13T00:55:16;17.10;99.90
31309;DHT22;17936;52.446;10.840;2023-07-13T00:57:43;17.10;99.90
31309;DHT22;17936;52.446;10.840;2023-07-13T01:00:09;17.00;99.90
31309;DHT22;17936;52.446;10.840;2023-07-13T01:02:39;16.80;99.90
31309;DHT22;17936;52.446;10.840;2023-07-13T01:05:10;16.90;99.90
31309;DHT22;17936;52.446;10.840;2023-07-13T01:07:35;16.80;99.90
31309;DHT22;17936;52.446;10.840;2023-07-13T01:10:02;16.70;99.90
31309;DHT22;17936;52.446;10.840;2023-07-13T01:12:28;17.00;99.90
31309;DHT22;17936;52.446;10.840;2023-07-13T01:14:58;17.00;99.90
31309;DHT22;17936;52.446;10.840;2023-07-13T01:17:24;16.70;99.90
31309;DHT22;17936;52.446;10.840;2023-07-13T01:19:49;16.80;99.90
31309;DHT22;17936;52.446;10.840;2023-07-13T01:22:17;16.70;99.90
31309;DHT22;17936;52.446;10.840;2023-07-13T01:24:45;16.60;99.90
31309;DHT22;17936;52.446;10.840;2023-07-13T01:27:13;16.70;99.90
31309;DHT22;17936;52.446;10.840;2023-07-13T01:29:41;16.50;99.90
31309;DHT22;17936;52.446;10.840;2023-07-13T01:32:13;16.60;99.90
31309;DHT22;17936;52.446;10.840;2023-07-13T01:34:39;16.60;99.90
31309;DHT22;17936;52.446;10.840;2023-07-13T01:37:08;16.50;99.90
31309;DHT22;17936;52.446;10.840;2023-07-13T01:39:34;16.60;99.90
31309;DHT22;17936;52.446;10.840;2023-07-13T01:41:59;16.60;99.90
31309;DHT22;17936;52.446;10.840;2023-07-13T01:44:25;16.50;99.90
31309;DHT22;17936;52.446;10.840;2023-07-13T01:46:51;16.50;99.90
31309;DHT22;17936;52.446;10.840;2023-07-13T01:49:16;16.50;99.90
31309;DHT22;17936;52.446;10.840;2023-07-13T01:51:42;16.50;99.90
31309;DHT22;17936;52.446;10.840;2023-07-13T01:54:07;16.50;99.90
31309;DHT22;17936;52.446;10.840;2023-07-13T01:56:33;16.50;99.90
31309;DHT22;17936;52.446;10.840;2023-07-13T01:58:58;16.40;99.90
31309;DHT22;17936;52.446;10.840;2023-07-13T02:01:24;16.40;99.90
31309;DHT22;17936;52.446;10.840;2023-07-13T02:03:49;16.60;99.90
31309;DHT22;17936;52.446;10.840;2023-07-13T02:06:15;16.60;99.90
31309;DHT22;17936;52.446;10.840;2023-07-13T02:08:41;16.60;99.90
31309;DHT22;17936;52.446;10.840;2023-07-13T02:11:07;16.60;99.90
31309;DHT22;17936;52.446;10.840;2023-07-13T02:13:32;16.60;99.90
31309;DHT22;17936;52.446;10.840;2023-07-13T02:15:58;16.70;99.90
31309;DHT22;17936;52.446;10.840;2023-07-13T02:18:23;16.60;99.90
31309;DHT22;17936;52.446;10.840;2023-07-13T02:20:49;16.60;99.90
31309;DHT22;17936;52.446;10.840;2023-07-13T02:23:15;16.60;99.90
31309;DHT22;17936;52.446;10.840;2023-07-13T02:25:40;16.60;99.90
31309;DHT22;17936;52.446;10.840;2023-07-13T02:28:06;16.60;99.90
31309;DHT22;17936;52.446;10.840;2023-07-13T02:30:34;16.50;99.90
31309;DHT22;17936;52.446;10.840;2023-07-13T02:32:59;16.60;99.90
31309;DHT22;17936;52.446;10.840;2023-07-13T02:35:25;16.60;99.90
31309;DHT22;17936;52.446;10.840;2023-07-13T02:37:50;16.60;99.90
31309;DHT22;17936;52.446;10.840;2023-07-13T02:40:16;16.70;99.90
31309;DHT22;17936;52.446;10.840;2023-07-13T02:42:42;16.80;99.90
31309;DHT22;17936;52.446;10.840;2023-07-13T02:45:08;16.80;99.90
31309;DHT22;17936;52.446;10.840;2023-07-13T02:47:35;16.90;99.90
31309;DHT22;17936;52.446;10.840;2023-07-13T02:50:01;16.80;99.90
31309;DHT22;17936;52.446;10.840;2023-07-13T02:52:27;16.80;99.90
31309;DHT22;17936;52.446;10.840;2023-07-13T02:54:53;16.90;99.90
31309;DHT22;17936;52.446;10.840;2023-07-13T02:57:18;16.80;99.90
31309;DHT22;17936;52.446;10.840;2023-07-13T02:59:44;16.90;99.90
31309;DHT22;17936;52.446;10.840;2023-07-13T03:02:09;16.80;99.90
31309;DHT22;17936;52.446;10.840;2023-07-13T03:04:36;16.90;99.90
31309;DHT22;17936;52.446;10.840;2023-07-13T03:07:02;16.60;99.90
31309;DHT22;17936;52.446;10.840;2023-07-13T03:09:28;16.70;99.90
31309;DHT22;17936;52.446;10.840;2023-07-13T03:11:54;16.60;99.90
31309;DHT22;17936;52.446;10.840;2023-07-13T03:14:24;16.60;99.90
31309;DHT22;17936;52.446;10.840;2023-07-13T03:16:49;16.70;99.90
31309;DHT22;17936;52.446;10.840;2023-07-13T03:19:15;16.60;99.90
31309;DHT22;17936;52.446;10.840;2023-07-13T03:21:41;16.70;99.90
31309;DHT22;17936;52.446;10.840;2023-07-13T03:24:07;16.70;99.90
31309;DHT22;17936;52.446;10.840;2023-07-13T03:26:32;16.70;99.90
31309;DHT22;17936;52.446;10.840;2023-07-13T03:28:58;16.60;99.90
31309;DHT22;17936;52.446;10.840;2023-07-13T03:31:28;16.60;99.90
31309;DHT22;17936;52.446;10.840;2023-07-13T03:33:56;16.60;99.90
31309;DHT22;17936;52.446;10.840;2023-07-13T03:36:28;16.50;99.90
31309;DHT22;17936;52.446;10.840;2023-07-13T03:38:57;16.40;99.90
31309;DHT22;17936;52.446;10.840;2023-07-13T03:41:24;16.30;99.90
31309;DHT22;17936;52.446;10.840;2023-07-13T03:43:51;16.20;99.90
31309;DHT22;17936;52.446;10.840;2023-07-13T03:46:17;16.10;99.90
31309;DHT22;17936;52.446;10.840;2023-07-13T03:48:44;16.20;99.90
31309;DHT22;17936;52.446;10.840;2023-07-13T03:51:12;16.10;99.90
31309;DHT22;17936;52.446;10.840;2023-07-13T03:53:41;16.20;99.90
31309;DHT22;17936;52.446;10.840;2023-07-13T03:56:07;16.20;99.90
31309;DHT22;17936;52.446;10.840;2023-07-13T03:58:35;16.20;99.90
31309;DHT22;17936;52.446;10.840;2023-07-13T04:01:02;16.20;99.90
31309;DHT22;17936;52.446;10.840;2023-07-13T04:03:29;16.10;99.90
31309;DHT22;17936;52.446;10.840;2023-07-13T04:05:58;16.10;99.90
31309;DHT22;17936;52.446;10.840;2023-07-13T04:08:32;16.10;99.90
31309;DHT22;17936;52.446;10.840;2023-07-13T04:10:58;16.00;99.90
31309;DHT22;17936;52.446;10.840;2023-07-13T04:13:24;15.90;99.90
31309;DHT22;17936;52.446;10.840;2023-07-13T04:15:51;15.90;99.90
31309;DHT22;17936;52.446;10.840;2023-07-13T04:18:18;16.00;99.90
31309;DHT22;17936;52.446;10.840;2023-07-13T04:20:45;16.10;99.90
31309;DHT22;17936;52.446;10.840;2023-07-13T04:23:11;16.10;99.90
31309;DHT22;17936;52.446;10.840;2023-07-13T04:25:36;16.10;99.90
31309;DHT22;17936;52.446;10.840;2023-07-13T04:28:03;16.20;99.90
31309;DHT22;17936;52.446;10.840;2023-07-13T04:30:29;16.30;99.90
31309;DHT22;17936;52.446;10.840;2023-07-13T04:32:54;16.40;99.90
31309;DHT22;17936;52.446;10.840;2023-07-13T04:35:20;16.50;99.90
31309;DHT22;17936;52.446;10.840;2023-07-13T04:37:46;16.60;99.90
31309;DHT22;17936;52.446;10.840;2023-07-13T04:40:13;16.80;99.90
31309;DHT22;17936;52.446;10.840;2023-07-13T04:42:38;16.80;99.90
31309;DHT22;17936;52.446;10.840;2023-07-13T04:45:06;16.90;99.90
31309;DHT22;17936;52.446;10.840;2023-07-13T04:47:32;16.90;99.90
31309;DHT22;17936;52.446;10.840;2023-07-13T04:49:57;17.00;99.90
31309;DHT22;17936;52.446;10.840;2023-07-13T04:52:23;17.20;99.90
31309;DHT22;17936;52.446;10.840;2023-07-13T04:54:49;17.30;99.90
31309;DHT22;17936;52.446;10.840;2023-07-13T04:57:15;17.30;99.90
31309;DHT22;17936;52.446;10.840;2023-07-13T04:59:40;17.40;99.90
31309;DHT22;17936;52.446;10.840;2023-07-13T05:02:06;17.50;99.90
31309;DHT22;17936;52.446;10.840;2023-07-13T05:04:31;17.70;99.90
31309;DHT22;17936;52.446;10.840;2023-07-13T05:06:57;17.70;99.90
31309;DHT22;17936;52.446;10.840;2023-07-13T05:09:22;17.80;99.90
31309;DHT22;17936;52.446;10.840;2023-07-13T05:11:48;17.90;99.90
31309;DHT22;17936;52.446;10.840;2023-07-13T05:14:13;17.80;99.90
31309;DHT22;17936;52.446;10.840;2023-07-13T05:16:40;17.80;99.90
31309;DHT22;17936;52.446;10.840;2023-07-13T05:19:06;18.00;99.90
31309;DHT22;17936;52.446;10.840;2023-07-13T05:21:31;17.90;99.90
31309;DHT22;17936;52.446;10.840;2023-07-13T05:23:57;18.00;99.90
31309;DHT22;17936;52.446;10.840;2023-07-13T05:26:22;18.20;99.90
31309;DHT22;17936;52.446;10.840;2023-07-13T05:28:48;18.30;99.90
31309;DHT22;17936;52.446;10.840;2023-07-13T05:31:14;18.20;99.90
31309;DHT22;17936;52.446;10.840;2023-07-13T05:33:39;18.60;99.90
31309;DHT22;17936;52.446;10.840;2023-07-13T05:36:05;18.90;99.90
31309;DHT22;17936;52.446;10.840;2023-07-13T05:38:32;18.90;99.90
31309;DHT22;17936;52.446;10.840;2023-07-13T05:40:58;18.70;99.90
31309;DHT22;17936;52.446;10.840;2023-07-13T05:43:24;18.70;99.90
31309;DHT22;17936;52.446;10.840;2023-07-13T05:45:52;18.80;99.90
31309;DHT22;17936;52.446;10.840;2023-07-13T05:48:18;18.90;99.90
31309;DHT22;17936;52.446;10.840;2023-07-13T05:50:44;18.80;99.90
31309;DHT22;17936;52.446;10.840;2023-07-13T05:53:09;18.80;99.90
31309;DHT22;17936;52.446;10.840;2023-07-13T05:55:35;18.70;99.90
31309;DHT22;17936;52.446;10.840;2023-07-13T05:58:01;18.50;99.90
31309;DHT22;17936;52.446;10.840;2023-07-13T06:00:27;18.60;99.90
31309;DHT22;17936;52.446;10.840;2023-07-13T06:02:52;18.70;99.90
31309;DHT22;17936;52.446;10.840;2023-07-13T06:05:18;18.90;99.90
31309;DHT22;17936;52.446;10.840;2023-07-13T06:07:44;19.00;99.90
31309;DHT22;17936;52.446;10.840;2023-07-13T06:10:09;19.30;99.90
31309;DHT22;17936;52.446;10.840;2023-07-13T06:12:35;19.10;99.90
31309;DHT22;17936;52.446;10.840;2023-07-13T06:15:01;19.30;99.90
31309;DHT22;17936;52.446;10.840;2023-07-13T06:17:26;19.50;99.90
31309;DHT22;17936;52.446;10.840;2023-07-13T06:19:52;19.80;99.90
31309;DHT22;17936;52.446;10.840;2023-07-13T06:22:17;19.80;99.90
31309;DHT22;17936;52.446;10.840;2023-07-13T06:24:43;20.20;99.90
31309;DHT22;17936;52.446;10.840;2023-07-13T06:27:08;20.50;99.90
31309;DHT22;17936;52.446;10.840;2023-07-13T06:29:34;20.30;99.90
31309;DHT22;17936;52.446;10.840;2023-07-13T06:32:00;20.70;99.90
31309;DHT22;17936;52.446;10.840;2023-07-13T06:34:25;20.20;99.90
31309;DHT22;17936;52.446;10.840;2023-07-13T06:36:51;20.40;99.90
31309;DHT22;17936;52.446;10.840;2023-07-13T06:39:17;20.20;99.90
31309;DHT22;17936;52.446;10.840;2023-07-13T06:41:44;20.70;99.90
31309;DHT22;17936;52.446;10.840;2023-07-13T06:44:09;20.50;99.90
31309;DHT22;17936;52.446;10.840;2023-07-13T06:46:35;20.60;99.90
31309;DHT22;17936;52.446;10.840;2023-07-13T06:49:00;21.20;99.90
31309;DHT22;17936;52.446;10.840;2023-07-13T06:51:26;21.30;99.90
31309;DHT22;17936;52.446;10.840;2023-07-13T06:53:51;20.90;99.90
31309;DHT22;17936;52.446;10.840;2023-07-13T06:56:17;21.90;99.90
31309;DHT22;17936;52.446;10.840;2023-07-13T06:58:43;21.00;99.90
31309;DHT22;17936;52.446;10.840;2023-07-13T07:01:08;21.80;99.90
31309;DHT22;17936;52.446;10.840;2023-07-13T07:03:34;22.20;99.90
31309;DHT22;17936;52.446;10.840;2023-07-13T07:06:15;21.50;99.90
31309;DHT22;17936;52.446;10.840;2023-07-13T07:08:41;21.80;99.90
31309;DHT22;17936;52.446;10.840;2023-07-13T07:11:10;22.10;99.90
31309;DHT22;17936;52.446;10.840;2023-07-13T07:13:36;22.00;99.90
31309;DHT22;17936;52.446;10.840;2023-07-13T07:16:02;21.90;99.90
31309;DHT22;17936;52.446;10.840;2023-07-13T07:18:27;22.20;99.90
31309;DHT22;17936;52.446;10.840;2023-07-13T07:20:53;22.00;99.90
31309;DHT22;17936;52.446;10.840;2023-07-13T07:23:18;22.20;99.90
31309;DHT22;17936;52.446;10.840;2023-07-13T07:25:44;22.50;99.90
31309;DHT22;17936;52.446;10.840;2023-07-13T07:28:10;22.60;99.90
31309;DHT22;17936;52.446;10.840;2023-07-13T07:30:36;21.90;99.90
31309;DHT22;17936;52.446;10.840;2023-07-13T07:33:01;21.40;99.90
31309;DHT22;17936;52.446;10.840;2023-07-13T07:35:27;21.30;99.90
31309;DHT22;17936;52.446;10.840;2023-07-13T07:37:52;22.10;99.90
31309;DHT22;17936;52.446;10.840;2023-07-13T07:40:18;21.10;99.90
31309;DHT22;17936;52.446;10.840;2023-07-13T07:42:44;20.80;99.90
31309;DHT22;17936;52.446;10.840;2023-07-13T07:45:10;21.20;99.90
31309;DHT22;17936;52.446;10.840;2023-07-13T07:47:37;21.50;99.90
31309;DHT22;17936;52.446;10.840;2023-07-13T07:50:02;21.90;99.90
31309;DHT22;17936;52.446;10.840;2023-07-13T07:52:29;22.00;99.90
31309;DHT22;17936;52.446;10.840;2023-07-13T07:54:54;21.60;99.90
31309;DHT22;17936;52.446;10.840;2023-07-13T07:57:20;21.30;99.90
31309;DHT22;17936;52.446;10.840;2023-07-13T07:59:45;21.30;99.90
31309;DHT22;17936;52.446;10.840;2023-07-13T08:02:11;21.10;99.90
31309;DHT22;17936;52.446;10.840;2023-07-13T08:04:36;21.10;99.90
31309;DHT22;17936;52.446;10.840;2023-07-13T08:07:02;21.00;99.90
31309;DHT22;17936;52.446;10.840;2023-07-13T08:09:28;20.40;99.90
31309;DHT22;17936;52.446;10.840;2023-07-13T08:11:54;20.90;99.90
31309;DHT22;17936;52.446;10.840;2023-07-13T08:14:20;21.70;99.90
31309;DHT22;17936;52.446;10.840;2023-07-13T08:16:45;21.40;99.90
31309;DHT22;17936;52.446;10.840;2023-07-13T08:19:11;21.10;99.90
31309;DHT22;17936;52.446;10.840;2023-07-13T08:21:37;21.30;99.90
31309;DHT22;17936;52.446;10.840;2023-07-13T08:24:03;21.30;99.90
31309;DHT22;17936;52.446;10.840;2023-07-13T08:26:28;21.30;99.90
31309;DHT22;17936;52.446;10.840;2023-07-13T08:28:54;22.10;99.90
31309;DHT22;17936;52.446;10.840;2023-07-13T08:31:19;22.40;99.90
31309;DHT22;17936;52.446;10.840;2023-07-13T08:33:45;22.30;99.90
31309;DHT22;17936;52.446;10.840;2023-07-13T08:36:11;21.40;99.90
31309;DHT22;17936;52.446;10.840;2023-07-13T08:38:36;21.80;99.90
31309;DHT22;17936;52.446;10.840;2023-07-13T08:41:14;21.40;99.90
31309;DHT22;17936;52.446;10.840;2023-07-13T08:43:41;21.10;99.90
31309;DHT22;17936;52.446;10.840;2023-07-13T08:46:09;21.70;99.90
31309;DHT22;17936;52.446;10.840;2023-07-13T08:48:41;21.70;99.90
31309;DHT22;17936;52.446;10.840;2023-07-13T08:51:23;21.80;99.90
31309;DHT22;17936;52.446;10.840;2023-07-13T08:53:54;21.90;99.90
31309;DHT22;17936;52.446;10.840;2023-07-13T08:56:24;22.20;99.90
31309;DHT22;17936;52.446;10.840;2023-07-13T08:58:55;21.80;99.90
31309;DHT22;17936;52.446;10.840;2023-07-13T09:04:11;22.50;99.90
31309;DHT22;17936;52.446;10.840;2023-07-13T09:07:03;22.30;99.90
31309;DHT22;17936;52.446;10.840;2023-07-13T09:09:52;22.50;99.90
31309;DHT22;17936;52.446;10.840;2023-07-13T09:15:28;22.10;99.90
31309;DHT22;17936;52.446;10.840;2023-07-13T09:18:05;22.50;99.90
31309;DHT22;17936;52.446;10.840;2023-07-13T09:20:54;21.70;99.90
31309;DHT22;17936;52.446;10.840;2023-07-13T09:23:23;21.40;99.90
31309;DHT22;17936;52.446;10.840;2023-07-13T09:25:56;21.60;99.90
31309;DHT22;17936;52.446;10.840;2023-07-13T09:28:29;21.20;99.90
31309;DHT22;17936;52.446;10.840;2023-07-13T09:33:29;22.70;99.90
31309;DHT22;17936;52.446;10.840;2023-07-13T09:35:56;23.00;99.90
31309;DHT22;17936;52.446;10.840;2023-07-13T09:38:28;22.70;99.90
31309;DHT22;17936;52.446;10.840;2023-07-13T09:44:10;21.70;99.90
31309;DHT22;17936;52.446;10.840;2023-07-13T09:46:37;21.70;99.90
31309;DHT22;17936;52.446;10.840;2023-07-13T09:49:03;22.90;99.90
31309;DHT22;17936;52.446;10.840;2023-07-13T09:51:29;22.30;99.90
31309;DHT22;17936;52.446;10.840;2023-07-13T09:53:55;22.20;99.90
31309;DHT22;17936;52.446;10.840;2023-07-13T09:56:22;22.50;99.90
31309;DHT22;17936;52.446;10.840;2023-07-13T09:58:49;22.80;99.90
31309;DHT22;17936;52.446;10.840;2023-07-13T10:01:14;22.70;99.90
31309;DHT22;17936;52.446;10.840;2023-07-13T10:03:52;21.80;99.90
31309;DHT22;17936;52.446;10.840;2023-07-13T10:06:20;22.40;99.90
31309;DHT22;17936;52.446;10.840;2023-07-13T10:08:48;22.20;99.90
31309;DHT22;17936;52.446;10.840;2023-07-13T10:11:26;21.90;99.90
31309;DHT22;17936;52.446;10.840;2023-07-13T10:14:14;21.70;99.90
31309;DHT22;17936;52.446;10.840;2023-07-13T10:16:42;22.00;99.90
31309;DHT22;17936;52.446;10.840;2023-07-13T10:19:38;22.70;99.90
31309;DHT22;17936;52.446;10.840;2023-07-13T10:24:46;23.60;99.90
31309;DHT22;17936;52.446;10.840;2023-07-13T10:27:20;24.00;99.90
31309;DHT22;17936;52.446;10.840;2023-07-13T10:29:54;23.00;99.90
31309;DHT22;17936;52.446;10.840;2023-07-13T10:32:22;22.30;99.90
31309;DHT22;17936;52.446;10.840;2023-07-13T10:34:49;21.60;99.90
31309;DHT22;17936;52.446;10.840;2023-07-13T10:37:25;21.80;99.90
31309;DHT22;17936;52.446;10.840;2023-07-13T10:39:54;21.80;99.90
31309;DHT22;17936;52.446;10.840;2023-07-13T10:42:38;22.50;99.90
31309;DHT22;17936;52.446;10.840;2023-07-13T10:45:16;22.60;99.90
31309;DHT22;17936;52.446;10.840;2023-07-13T10:47:43;22.20;99.90
31309;DHT22;17936;52.446;10.840;2023-07-13T10:50:17;22.00;99.90
31309;DHT22;17936;52.446;10.840;2023-07-13T10:52:52;22.30;99.90
31309;DHT22;17936;52.446;10.840;2023-07-13T10:55:41;22.50;99.90
31309;DHT22;17936;52.446;10.840;2023-07-13T11:01:14;22.20;99.90
31309;DHT22;17936;52.446;10.840;2023-07-13T11:18:50;23.00;99.90
31309;DHT22;17936;52.446;10.840;2023-07-13T11:21:19;23.50;99.90
31309;DHT22;17936;52.446;10.840;2023-07-13T11:23:53;24.30;99.90
31309;DHT22;17936;52.446;10.840;2023-07-13T11:26:43;23.90;99.90
31309;DHT22;17936;52.446;10.840;2023-07-13T11:31:41;23.80;99.90
31309;DHT22;17936;52.446;10.840;2023-07-13T11:34:13;24.60;99.90
31309;DHT22;17936;52.446;10.840;2023-07-13T11:36:43;24.90;99.80
31309;DHT22;17936;52.446;10.840;2023-07-13T11:39:18;24.50;99.90
31309;DHT22;17936;52.446;10.840;2023-07-13T11:41:54;24.70;99.20
31309;DHT22;17936;52.446;10.840;2023-07-13T11:44:24;24.70;99.50
31309;DHT22;17936;52.446;10.840;2023-07-13T11:46:52;24.40;99.70
31309;DHT22;17936;52.446;10.840;2023-07-13T11:49:21;24.00;99.90
31309;DHT22;17936;52.446;10.840;2023-07-13T11:51:47;24.70;98.90
31309;DHT22;17936;52.446;10.840;2023-07-13T11:54:29;24.70;99.00
31309;DHT22;17936;52.446;10.840;2023-07-13T11:56:58;25.10;97.30
31309;DHT22;17936;52.446;10.840;2023-07-13T11:59:26;24.70;96.00
31309;DHT22;17936;52.446;10.840;2023-07-13T12:01:53;23.90;98.40
31309;DHT22;17936;52.446;10.840;2023-07-13T12:04:28;24.30;98.80
31309;DHT22;17936;52.446;10.840;2023-07-13T12:07:03;24.60;98.70
31309;DHT22;17936;52.446;10.840;2023-07-13T12:09:29;24.60;97.60
31309;DHT22;17936;52.446;10.840;2023-07-13T12:11:57;24.30;98.00
31309;DHT22;17936;52.446;10.840;2023-07-13T12:14:23;24.70;96.40
31309;DHT22;17936;52.446;10.840;2023-07-13T12:16:50;24.60;95.50
31309;DHT22;17936;52.446;10.840;2023-07-13T12:19:21;23.90;95.60
31309;DHT22;17936;52.446;10.840;2023-07-13T12:21:48;24.30;96.10
31309;DHT22;17936;52.446;10.840;2023-07-13T12:24:20;25.20;95.90
31309;DHT22;17936;52.446;10.840;2023-07-13T12:26:50;25.10;95.00
31309;DHT22;17936;52.446;10.840;2023-07-13T12:29:17;25.00;95.20
31309;DHT22;17936;52.446;10.840;2023-07-13T12:31:45;25.20;95.70
31309;DHT22;17936;52.446;10.840;2023-07-13T12:34:15;25.80;94.60
31309;DHT22;17936;52.446;10.840;2023-07-13T12:39:32;25.40;92.60
31309;DHT22;17936;52.446;10.840;2023-07-13T12:44:41;24.70;92.70
31309;DHT22;17936;52.446;10.840;2023-07-13T12:47:12;25.30;92.60
31309;DHT22;17936;52.446;10.840;2023-07-13T12:49:48;24.80;91.70
31309;DHT22;17936;52.446;10.840;2023-07-13T12:52:22;25.70;90.70
31309;DHT22;17936;52.446;10.840;2023-07-13T12:55:03;25.60;90.20
31309;DHT22;17936;52.446;10.840;2023-07-13T12:57:28;25.00;90.60
31309;DHT22;17936;52.446;10.840;2023-07-13T12:59:54;24.10;91.70
31309;DHT22;17936;52.446;10.840;2023-07-13T13:02:33;24.10;91.50
31309;DHT22;17936;52.446;10.840;2023-07-13T13:05:00;23.90;91.90
31309;DHT22;17936;52.446;10.840;2023-07-13T13:07:26;25.00;92.20
31309;DHT22;17936;52.446;10.840;2023-07-13T13:09:52;25.60;90.40
31309;DHT22;17936;52.446;10.840;2023-07-13T13:12:22;25.50;90.30
31309;DHT22;17936;52.446;10.840;2023-07-13T13:14:48;26.00;89.90
31309;DHT22;17936;52.446;10.840;2023-07-13T13:17:22;24.60;90.80
31309;DHT22;17936;52.446;10.840;2023-07-13T13:19:52;24.60;91.30
31309;DHT22;17936;52.446;10.840;2023-07-13T13:22:21;25.70;91.10
31309;DHT22;17936;52.446;10.840;2023-07-13T13:24:47;25.70;90.00
31309;DHT22;17936;52.446;10.840;2023-07-13T13:27:21;26.20;90.30
31309;DHT22;17936;52.446;10.840;2023-07-13T13:29:49;25.90;88.70
31309;DHT22;17936;52.446;10.840;2023-07-13T13:32:17;25.60;89.40
31309;DHT22;17936;52.446;10.840;2023-07-13T13:34:42;25.00;90.10
31309;DHT22;17936;52.446;10.840;2023-07-13T13:37:22;24.70;90.00
31309;DHT22;17936;52.446;10.840;2023-07-13T13:39:49;24.80;90.20
31309;DHT22;17936;52.446;10.840;2023-07-13T13:42:14;25.40;89.20
31309;DHT22;17936;52.446;10.840;2023-07-13T13:44:40;25.40;90.00
31309;DHT22;17936;52.446;10.840;2023-07-13T13:47:31;26.30;90.00
31309;DHT22;17936;52.446;10.840;2023-07-13T13:49:57;25.70;89.30
31309;DHT22;17936;52.446;10.840;2023-07-13T13:52:24;25.10;89.50
31309;DHT22;17936;52.446;10.840;2023-07-13T13:54:51;24.20;90.30
31309;DHT22;17936;52.446;10.840;2023-07-13T13:57:24;24.00;90.30
31309;DHT22;17936;52.446;10.840;2023-07-13T13:59:50;24.30;91.40
31309;DHT22;17936;52.446;10.840;2023-07-13T14:02:27;23.60;91.10
31309;DHT22;17936;52.446;10.840;2023-07-13T14:04:59;23.90;91.70
31309;DHT22;17936;52.446;10.840;2023-07-13T14:07:25;24.00;91.30
31309;DHT22;17936;52.446;10.840;2023-07-13T14:09:57;24.20;92.10
31309;DHT22;17936;52.446;10.840;2023-07-13T14:12:22;24.10;92.80
31309;DHT22;17936;52.446;10.840;2023-07-13T14:14:51;24.10;92.80
31309;DHT22;17936;52.446;10.840;2023-07-13T14:17:22;23.50;93.40
31309;DHT22;17936;52.446;10.840;2023-07-13T14:19:50;23.10;94.40
31309;DHT22;17936;52.446;10.840;2023-07-13T14:22:17;23.10;95.40
31309;DHT22;17936;52.446;10.840;2023-07-13T14:24:43;23.00;97.20
31309;DHT22;17936;52.446;10.840;2023-07-13T14:27:10;22.80;97.30
31309;DHT22;17936;52.446;10.840;2023-07-13T14:29:36;22.70;98.10
31309;DHT22;17936;52.446;10.840;2023-07-13T14:32:02;21.40;99.90
31309;DHT22;17936;52.446;10.840;2023-07-13T14:34:27;20.00;99.90
31309;DHT22;17936;52.446;10.840;2023-07-13T14:36:53;19.50;99.90
31309;DHT22;17936;52.446;10.840;2023-07-13T14:39:22;18.90;99.90
31309;DHT22;17936;52.446;10.840;2023-07-13T14:41:50;18.10;99.90
31309;DHT22;17936;52.446;10.840;2023-07-13T14:44:17;17.80;99.90
31309;DHT22;17936;52.446;10.840;2023-07-13T14:46:44;17.60;99.90
31309;DHT22;17936;52.446;10.840;2023-07-13T14:49:31;17.30;99.90
31309;DHT22;17936;52.446;10.840;2023-07-13T14:51:58;17.20;99.90
31309;DHT22;17936;52.446;10.840;2023-07-13T14:54:25;17.10;99.90
31309;DHT22;17936;52.446;10.840;2023-07-13T14:56:50;17.10;99.90
31309;DHT22;17936;52.446;10.840;2023-07-13T14:59:16;17.10;99.90
31309;DHT22;17936;52.446;10.840;2023-07-13T15:01:46;17.60;99.90
31309;DHT22;17936;52.446;10.840;2023-07-13T15:04:12;18.10;99.90
31309;DHT22;17936;52.446;10.840;2023-07-13T15:06:54;18.10;99.90
31309;DHT22;17936;52.446;10.840;2023-07-13T15:09:20;17.90;99.90
31309;DHT22;17936;52.446;10.840;2023-07-13T15:11:46;17.90;99.90
31309;DHT22;17936;52.446;10.840;2023-07-13T15:14:11;17.80;99.90
31309;DHT22;17936;52.446;10.840;2023-07-13T15:16:37;18.00;99.90
31309;DHT22;17936;52.446;10.840;2023-07-13T15:19:03;18.10;99.90
31309;DHT22;17936;52.446;10.840;2023-07-13T15:21:28;18.20;99.90
31309;DHT22;17936;52.446;10.840;2023-07-13T15:24:00;18.30;98.50
31309;DHT22;17936;52.446;10.840;2023-07-13T15:26:25;19.10;93.80
31309;DHT22;17936;52.446;10.840;2023-07-13T15:28:51;19.00;84.70
31309;DHT22;17936;52.446;10.840;2023-07-13T15:33:44;18.80;99.90
31309;DHT22;17936;52.446;10.840;2023-07-13T15:36:09;18.60;99.90
31309;DHT22;17936;52.446;10.840;2023-07-13T15:38:36;18.60;99.90
31309;DHT22;17936;52.446;10.840;2023-07-13T15:41:24;18.40;99.90
31309;DHT22;17936;52.446;10.840;2023-07-13T15:43:57;18.40;99.90
31309;DHT22;17936;52.446;10.840;2023-07-13T15:46:23;18.40;99.90
31309;DHT22;17936;52.446;10.840;2023-07-13T15:48:50;18.40;99.90
31309;DHT22;17936;52.446;10.840;2023-07-13T15:51:26;18.40;99.90
31309;DHT22;17936;52.446;10.840;2023-07-13T15:53:54;18.40;99.90
31309;DHT22;17936;52.446;10.840;2023-07-13T15:56:23;18.20;99.90
31309;DHT22;17936;52.446;10.840;2023-07-13T15:58:50;18.20;99.90
31309;DHT22;17936;52.446;10.840;2023-07-13T16:01:17;18.20;99.90
31309;DHT22;17936;52.446;10.840;2023-07-13T16:03:43;18.10;99.90
31309;DHT22;17936;52.446;10.840;2023-07-13T16:06:17;18.10;99.90